createdAt,value
2018-03-26T00:00:29.078Z,22.00
2018-03-26T00:01:28.987Z,22.20
2018-03-26T00:02:28.907Z,20.20
2018-03-26T00:03:28.826Z,26.10
2018-03-26T00:04:28.744Z,19.00
2018-03-26T00:05:28.664Z,19.80
2018-03-26T00:06:28.586Z,20.70
2018-03-26T00:07:28.501Z,21.80
2018-03-26T00:08:28.418Z,23.30
2018-03-26T00:09:28.337Z,24.00
2018-03-26T00:10:28.255Z,21.90
2018-03-26T00:11:28.175Z,20.20
2018-03-26T00:12:28.092Z,22.90
2018-03-26T00:13:28.011Z,22.40
2018-03-26T00:14:27.931Z,23.80
2018-03-26T00:15:27.850Z,22.00
2018-03-26T00:16:27.773Z,22.80
2018-03-26T00:17:27.686Z,22.60
2018-03-26T00:18:27.605Z,22.10
2018-03-26T00:19:27.524Z,23.30
2018-03-26T00:20:27.441Z,23.10
2018-03-26T00:21:27.365Z,24.20
2018-03-26T00:22:27.280Z,22.50
2018-03-26T00:23:27.198Z,19.60
2018-03-26T00:24:27.116Z,22.00
2018-03-26T00:25:27.035Z,23.30
2018-03-26T00:26:26.955Z,21.80
2018-03-26T00:27:26.874Z,22.90
2018-03-26T00:28:26.794Z,24.60
2018-03-26T00:29:26.710Z,24.70
2018-03-26T00:30:26.629Z,25.40
2018-03-26T00:31:26.549Z,25.60
2018-03-26T00:32:26.466Z,26.50
2018-03-26T00:33:26.384Z,24.30
2018-03-26T00:34:26.305Z,22.00
2018-03-26T00:35:26.224Z,23.10
2018-03-26T00:36:26.141Z,24.40
2018-03-26T00:37:26.060Z,22.30
2018-03-26T00:38:25.979Z,22.70
2018-03-26T00:39:25.898Z,21.80
2018-03-26T00:40:25.816Z,19.80
2018-03-26T00:41:25.733Z,21.70
2018-03-26T00:42:25.655Z,22.10
2018-03-26T00:43:25.574Z,25.50
2018-03-26T00:44:25.491Z,22.20
2018-03-26T00:45:25.410Z,23.30
2018-03-26T00:46:25.329Z,23.90
2018-03-26T00:47:25.248Z,20.60
2018-03-26T00:48:25.166Z,24.30
2018-03-26T00:49:25.086Z,23.60
2018-03-26T00:50:25.005Z,24.10
2018-03-26T00:51:24.925Z,22.70
2018-03-26T00:52:24.842Z,23.60
2018-03-26T00:53:24.761Z,24.50
2018-03-26T00:54:24.698Z,19.70
2018-03-26T00:55:24.599Z,22.60
2018-03-26T00:56:24.517Z,23.40
2018-03-26T00:57:24.438Z,21.20
2018-03-26T00:58:24.356Z,21.60
2018-03-26T00:59:24.275Z,21.80
2018-03-26T01:00:24.194Z,23.30
2018-03-26T01:01:24.115Z,23.30
2018-03-26T01:02:24.032Z,23.60
2018-03-26T01:03:23.951Z,22.30
2018-03-26T01:04:23.870Z,23.10
2018-03-26T01:05:23.790Z,23.00
2018-03-26T01:06:23.710Z,23.60
2018-03-26T01:07:23.630Z,22.80
2018-03-26T01:08:23.546Z,23.20
2018-03-26T01:09:23.466Z,23.60
2018-03-26T01:10:23.386Z,24.30
2018-03-26T01:11:23.304Z,21.70
2018-03-26T01:12:26.256Z,21.50
2018-03-26T01:13:23.142Z,24.20
2018-03-26T01:14:23.064Z,22.20
2018-03-26T01:15:22.982Z,25.00
2018-03-26T01:16:22.900Z,21.00
2018-03-26T01:17:22.819Z,24.80
2018-03-26T01:18:22.738Z,24.50
2018-03-26T01:19:22.659Z,24.40
2018-03-26T01:20:22.577Z,20.40
2018-03-26T01:21:22.496Z,25.50
2018-03-26T01:22:22.416Z,24.90
2018-03-26T01:23:22.336Z,20.50
2018-03-26T01:24:22.255Z,24.40
2018-03-26T01:25:22.174Z,22.90
2018-03-26T01:26:22.147Z,22.80
2018-03-26T01:27:22.014Z,23.10
2018-03-26T01:28:21.931Z,22.70
2018-03-26T01:29:21.852Z,25.80
2018-03-26T01:30:21.773Z,21.40
2018-03-26T01:31:21.691Z,23.00
2018-03-26T01:32:21.611Z,20.80
2018-03-26T01:33:21.530Z,23.30
2018-03-26T01:34:21.450Z,21.10
2018-03-26T01:35:21.370Z,23.70
2018-03-26T01:36:21.289Z,23.40
2018-03-26T01:37:21.209Z,23.80
2018-03-26T01:38:21.130Z,23.20
2018-03-26T01:39:21.050Z,25.20
2018-03-26T01:40:20.968Z,26.50
2018-03-26T01:41:20.888Z,26.30
2018-03-26T01:42:20.808Z,24.80
2018-03-26T01:43:20.728Z,26.70
2018-03-26T01:44:20.647Z,26.20
2018-03-26T01:45:20.567Z,25.70
2018-03-26T01:46:20.487Z,23.10
2018-03-26T01:47:20.407Z,23.90
2018-03-26T01:48:20.331Z,24.30
2018-03-26T01:49:20.248Z,24.60
2018-03-26T01:50:20.167Z,23.40
2018-03-26T01:51:20.086Z,24.60
2018-03-26T01:52:20.006Z,27.10
2018-03-26T01:53:19.926Z,25.30
2018-03-26T01:54:19.845Z,26.10
2018-03-26T01:55:19.765Z,25.40
2018-03-26T01:56:19.834Z,29.90
2018-03-26T01:57:19.604Z,25.50
2018-03-26T01:58:19.525Z,27.00
2018-03-26T01:59:19.446Z,24.70
2018-03-26T02:00:19.364Z,24.60
2018-03-26T02:01:19.284Z,26.80
2018-03-26T02:02:19.203Z,23.40
2018-03-26T02:03:19.124Z,24.60
2018-03-26T02:04:19.043Z,26.20
2018-03-26T02:05:18.963Z,24.10
2018-03-26T02:06:18.882Z,23.60
2018-03-26T02:07:18.806Z,24.90
2018-03-26T02:08:18.722Z,24.50
2018-03-26T02:09:18.642Z,23.60
2018-03-26T02:10:18.563Z,24.40
2018-03-26T02:11:18.485Z,23.90
2018-03-26T02:12:18.402Z,23.80
2018-03-26T02:13:18.324Z,22.90
2018-03-26T02:14:18.242Z,24.20
2018-03-26T02:15:18.164Z,26.00
2018-03-26T02:16:18.083Z,25.20
2018-03-26T02:17:18.004Z,24.50
2018-03-26T02:18:17.922Z,21.40
2018-03-26T02:19:17.842Z,26.10
2018-03-26T02:20:17.765Z,26.80
2018-03-26T02:21:17.682Z,25.70
2018-03-26T02:22:17.605Z,24.60
2018-03-26T02:23:17.523Z,25.20
2018-03-26T02:24:17.441Z,25.60
2018-03-26T02:25:17.362Z,21.30
2018-03-26T02:26:17.282Z,24.70
2018-03-26T02:27:17.202Z,25.50
2018-03-26T02:28:17.122Z,24.90
2018-03-26T02:29:17.041Z,26.20
2018-03-26T02:30:16.963Z,25.50
2018-03-26T02:31:16.884Z,23.80
2018-03-26T02:32:16.805Z,22.20
2018-03-26T02:33:16.724Z,25.70
2018-03-26T02:34:16.646Z,26.90
2018-03-26T02:35:16.575Z,23.90
2018-03-26T02:36:16.483Z,24.60
2018-03-26T02:37:16.409Z,26.30
2018-03-26T02:38:16.324Z,27.10
2018-03-26T02:39:16.243Z,26.00
2018-03-26T02:40:16.162Z,25.80
2018-03-26T02:41:16.082Z,27.40
2018-03-26T02:42:16.009Z,24.20
2018-03-26T02:43:15.923Z,25.20
2018-03-26T02:44:15.843Z,25.40
2018-03-26T02:45:15.764Z,26.10
2018-03-26T02:46:15.691Z,24.10
2018-03-26T02:47:15.602Z,25.80
2018-03-26T02:48:15.522Z,25.90
2018-03-26T02:49:15.444Z,26.20
2018-03-26T02:50:15.361Z,27.30
2018-03-26T02:51:15.282Z,26.30
2018-03-26T02:52:15.204Z,29.10
2018-03-26T02:53:15.120Z,25.80
2018-03-26T02:54:15.041Z,25.70
2018-03-26T02:55:14.966Z,28.30
2018-03-26T02:56:14.879Z,28.10
2018-03-26T02:57:14.806Z,27.00
2018-03-26T02:58:14.719Z,26.80
2018-03-26T02:59:14.639Z,28.10
2018-03-26T03:00:14.558Z,27.80
2018-03-26T03:01:14.478Z,26.10
2018-03-26T03:02:14.399Z,26.90
2018-03-26T03:03:14.318Z,27.40
2018-03-26T03:04:14.254Z,27.00
2018-03-26T03:05:14.158Z,27.80
2018-03-26T03:06:14.087Z,28.30
2018-03-26T03:07:14.000Z,28.20
2018-03-26T03:08:13.916Z,27.30
2018-03-26T03:09:13.842Z,27.50
2018-03-26T03:10:13.757Z,26.80
2018-03-26T03:11:13.678Z,28.70
2018-03-26T03:12:13.597Z,27.20
2018-03-26T03:13:13.517Z,29.00
2018-03-26T03:14:13.437Z,28.70
2018-03-26T03:15:13.358Z,29.60
2018-03-26T03:16:13.277Z,28.80
2018-03-26T03:17:13.197Z,28.30
2018-03-26T03:18:13.119Z,31.50
2018-03-26T03:19:13.037Z,28.40
2018-03-26T03:20:12.956Z,31.20
2018-03-26T03:21:12.876Z,29.40
2018-03-26T03:22:12.801Z,28.10
2018-03-26T03:23:12.718Z,29.90
2018-03-26T03:24:12.637Z,27.40
2018-03-26T03:25:12.556Z,28.80
2018-03-26T03:26:12.478Z,29.70
2018-03-26T03:27:12.406Z,30.10
2018-03-26T03:28:12.317Z,30.90
2018-03-26T03:29:12.238Z,31.50
2018-03-26T03:30:12.159Z,27.60
2018-03-26T03:31:12.081Z,29.70
2018-03-26T03:32:11.998Z,33.90
2018-03-26T03:33:11.919Z,30.90
2018-03-26T03:34:11.838Z,32.70
2018-03-26T03:35:11.759Z,31.30
2018-03-26T03:36:11.677Z,30.10
2018-03-26T03:37:11.598Z,31.30
2018-03-26T03:38:11.518Z,30.10
2018-03-26T03:39:11.439Z,29.00
2018-03-26T03:40:11.359Z,33.70
2018-03-26T03:41:11.279Z,33.90
2018-03-26T03:42:11.199Z,33.60
2018-03-26T03:43:11.120Z,31.40
2018-03-26T03:44:11.038Z,32.40
2018-03-26T03:45:10.959Z,36.30
2018-03-26T03:46:10.880Z,27.90
2018-03-26T03:47:10.800Z,33.10
2018-03-26T03:48:10.719Z,31.00
2018-03-26T03:49:10.643Z,34.90
2018-03-26T03:50:10.560Z,30.30
2018-03-26T03:51:10.481Z,32.50
2018-03-26T03:52:10.400Z,35.10
2018-03-26T03:53:10.320Z,31.70
2018-03-26T03:54:10.242Z,31.30
2018-03-26T03:55:10.161Z,33.30
2018-03-26T03:56:10.085Z,32.40
2018-03-26T03:57:10.001Z,31.50
2018-03-26T03:58:09.921Z,31.50
2018-03-26T03:59:09.841Z,33.50
2018-03-26T04:00:09.820Z,34.10
2018-03-26T04:01:09.681Z,33.60
2018-03-26T04:02:09.601Z,34.60
2018-03-26T04:03:09.521Z,34.70
2018-03-26T04:04:09.492Z,34.90
2018-03-26T04:05:09.360Z,34.20
2018-03-26T04:06:09.288Z,33.00
2018-03-26T04:07:09.201Z,39.00
2018-03-26T04:08:09.121Z,31.70
2018-03-26T04:09:09.041Z,30.90
2018-03-26T04:10:08.961Z,32.30
2018-03-26T04:11:08.882Z,31.50
2018-03-26T04:12:08.801Z,34.30
2018-03-26T04:13:08.721Z,33.70
2018-03-26T04:14:08.642Z,31.10
2018-03-26T04:15:08.562Z,35.90
2018-03-26T04:16:08.487Z,33.10
2018-03-26T04:17:08.406Z,31.50
2018-03-26T04:18:08.323Z,32.70
2018-03-26T04:19:08.243Z,36.10
2018-03-26T04:20:08.163Z,36.80
2018-03-26T04:21:08.084Z,35.60
2018-03-26T04:22:08.007Z,38.00
2018-03-26T04:23:07.923Z,30.70
2018-03-26T04:24:07.843Z,32.40
2018-03-26T04:25:07.765Z,34.40
2018-03-26T04:26:07.684Z,35.30
2018-03-26T04:27:07.605Z,33.80
2018-03-26T04:28:07.524Z,37.50
2018-03-26T04:29:07.445Z,38.60
2018-03-26T04:30:07.420Z,35.60
2018-03-26T04:31:07.286Z,36.40
2018-03-26T04:32:07.219Z,35.50
2018-03-26T04:33:07.125Z,38.40
2018-03-26T04:34:07.045Z,34.00
2018-03-26T04:35:06.965Z,32.20
2018-03-26T04:36:06.885Z,34.20
2018-03-26T04:37:06.807Z,35.50
2018-03-26T04:38:06.726Z,33.30
2018-03-26T04:39:06.647Z,36.80
2018-03-26T04:40:06.566Z,34.60
2018-03-26T04:41:06.486Z,37.30
2018-03-26T04:42:06.407Z,36.30
2018-03-26T04:43:06.330Z,35.00
2018-03-26T04:44:06.247Z,35.00
2018-03-26T04:45:06.167Z,35.00
2018-03-26T04:46:06.089Z,33.20
2018-03-26T04:47:06.008Z,38.00
2018-03-26T04:48:05.927Z,35.40
2018-03-26T04:49:05.849Z,39.10
2018-03-26T04:50:05.768Z,38.10
2018-03-26T04:51:05.688Z,37.70
2018-03-26T04:52:05.608Z,33.80
2018-03-26T04:53:05.528Z,36.50
2018-03-26T04:54:05.448Z,37.50
2018-03-26T04:55:05.371Z,36.50
2018-03-26T04:56:05.293Z,38.20
2018-03-26T04:57:05.210Z,36.10
2018-03-26T04:58:05.128Z,34.20
2018-03-26T04:59:05.050Z,32.40
2018-03-26T05:00:04.971Z,35.10
2018-03-26T05:01:04.891Z,34.20
2018-03-26T05:02:04.811Z,34.00
2018-03-26T05:03:04.731Z,34.20
2018-03-26T05:04:04.650Z,34.50
2018-03-26T05:05:04.570Z,36.40
2018-03-26T05:06:04.501Z,35.70
2018-03-26T05:07:04.491Z,37.70
2018-03-26T05:08:04.331Z,36.30
2018-03-26T05:09:04.295Z,35.60
2018-03-26T05:10:04.172Z,36.30
2018-03-26T05:11:04.094Z,37.90
2018-03-26T05:12:04.012Z,37.40
2018-03-26T05:13:03.932Z,35.70
2018-03-26T05:14:03.852Z,42.50
2018-03-26T05:15:03.773Z,36.80
2018-03-26T05:16:03.692Z,38.30
2018-03-26T05:17:03.613Z,34.30
2018-03-26T05:18:03.533Z,37.40
2018-03-26T05:19:03.455Z,38.10
2018-03-26T05:20:03.374Z,41.50
2018-03-26T05:21:03.294Z,33.20
2018-03-26T05:22:03.214Z,40.00
2018-03-26T05:23:03.134Z,37.40
2018-03-26T05:24:03.056Z,38.60
2018-03-26T05:25:02.975Z,38.80
2018-03-26T05:26:02.895Z,39.40
2018-03-26T05:27:02.816Z,40.20
2018-03-26T05:28:02.734Z,38.30
2018-03-26T05:29:02.655Z,43.50
2018-03-26T05:30:02.576Z,37.30
2018-03-26T05:31:02.538Z,35.20
2018-03-26T05:32:02.415Z,37.20
2018-03-26T05:33:02.336Z,38.80
2018-03-26T05:34:02.261Z,42.50
2018-03-26T05:35:02.178Z,37.80
2018-03-26T05:36:02.097Z,37.50
2018-03-26T05:37:02.017Z,39.40
2018-03-26T05:38:01.937Z,39.10
2018-03-26T05:39:01.859Z,38.10
2018-03-26T05:40:01.777Z,41.60
2018-03-26T05:41:01.698Z,41.90
2018-03-26T05:42:01.640Z,40.50
2018-03-26T05:43:01.538Z,42.20
2018-03-26T05:44:01.458Z,43.40
2018-03-26T05:45:01.379Z,38.40
2018-03-26T05:46:01.303Z,40.10
2018-03-26T05:47:01.220Z,38.70
2018-03-26T05:48:01.139Z,41.50
2018-03-26T05:49:01.059Z,41.40
2018-03-26T05:50:00.979Z,37.70
2018-03-26T05:51:00.900Z,38.10
2018-03-26T05:52:00.820Z,41.00
2018-03-26T05:53:00.740Z,42.60
2018-03-26T05:54:00.660Z,39.00
2018-03-26T05:55:00.580Z,39.20
2018-03-26T05:56:00.500Z,38.10
2018-03-26T05:57:00.420Z,38.00
2018-03-26T05:58:00.344Z,39.50
2018-03-26T05:59:00.261Z,38.20
2018-03-26T06:00:00.181Z,40.20
2018-03-26T06:01:00.102Z,38.90
2018-03-26T06:02:00.022Z,40.80
2018-03-26T06:02:59.942Z,41.50
2018-03-26T06:03:59.862Z,40.60
2018-03-26T06:04:59.782Z,37.60
2018-03-26T06:05:59.705Z,39.70
2018-03-26T06:06:59.622Z,38.50
2018-03-26T06:07:59.542Z,40.60
2018-03-26T06:08:59.463Z,41.60
2018-03-26T06:09:59.383Z,39.70
2018-03-26T06:10:59.303Z,42.40
2018-03-26T06:11:59.258Z,38.90
2018-03-26T06:12:59.143Z,38.80
2018-03-26T06:13:59.071Z,42.50
2018-03-26T06:14:58.985Z,39.60
2018-03-26T06:15:58.903Z,38.00
2018-03-26T06:16:58.823Z,39.50
2018-03-26T06:17:58.744Z,39.00
2018-03-26T06:18:58.665Z,38.40
2018-03-26T06:19:58.583Z,41.20
2018-03-26T06:20:58.505Z,36.70
2018-03-26T06:21:58.424Z,39.00
2018-03-26T06:22:58.345Z,39.20
2018-03-26T06:23:58.265Z,36.20
2018-03-26T06:24:58.244Z,39.60
2018-03-26T06:25:58.105Z,40.90
2018-03-26T06:26:58.025Z,42.20
2018-03-26T06:27:57.952Z,39.70
2018-03-26T06:28:57.867Z,45.00
2018-03-26T06:29:57.786Z,46.60
2018-03-26T06:30:57.707Z,45.90
2018-03-26T06:31:57.626Z,45.90
2018-03-26T06:32:57.547Z,45.20
2018-03-26T06:33:57.467Z,47.20
2018-03-26T06:34:57.387Z,43.10
2018-03-26T06:35:57.307Z,42.40
2018-03-26T06:36:57.228Z,42.30
2018-03-26T06:37:57.150Z,43.40
2018-03-26T06:38:57.070Z,39.10
2018-03-26T06:39:56.989Z,39.10
2018-03-26T06:40:56.910Z,45.40
2018-03-26T06:41:56.829Z,50.10
2018-03-26T06:42:56.751Z,43.30
2018-03-26T06:43:56.671Z,44.60
2018-03-26T06:44:56.595Z,41.40
2018-03-26T06:45:56.512Z,44.30
2018-03-26T06:46:56.438Z,41.80
2018-03-26T06:47:56.351Z,41.30
2018-03-26T06:48:56.274Z,42.20
2018-03-26T06:49:56.194Z,41.40
2018-03-26T06:50:56.115Z,43.20
2018-03-26T06:51:56.035Z,41.70
2018-03-26T06:52:55.956Z,40.50
2018-03-26T06:53:55.877Z,42.00
2018-03-26T06:54:55.798Z,42.30
2018-03-26T06:55:55.718Z,39.80
2018-03-26T06:56:55.640Z,39.40
2018-03-26T06:57:55.561Z,38.30
2018-03-26T06:58:55.482Z,42.20
2018-03-26T06:59:55.401Z,37.30
2018-03-26T07:00:55.332Z,42.80
2018-03-26T07:01:55.245Z,40.50
2018-03-26T07:02:55.165Z,43.10
2018-03-26T07:03:55.087Z,38.10
2018-03-26T07:04:55.006Z,39.00
2018-03-26T07:05:54.926Z,40.20
2018-03-26T07:06:54.850Z,47.00
2018-03-26T07:07:54.768Z,43.20
2018-03-26T07:08:54.688Z,42.90
2018-03-26T07:09:54.610Z,45.60
2018-03-26T07:10:54.531Z,41.10
2018-03-26T07:11:54.453Z,39.80
2018-03-26T07:12:54.372Z,42.20
2018-03-26T07:13:54.297Z,40.90
2018-03-26T07:14:54.214Z,45.90
2018-03-26T07:15:54.134Z,43.90
2018-03-26T07:16:54.056Z,42.00
2018-03-26T07:17:53.977Z,46.20
2018-03-26T07:18:53.953Z,42.00
2018-03-26T07:19:53.819Z,37.80
2018-03-26T07:20:53.740Z,44.90
2018-03-26T07:21:53.664Z,40.10
2018-03-26T07:22:53.582Z,41.80
2018-03-26T07:23:53.502Z,42.50
2018-03-26T07:24:53.430Z,42.60
2018-03-26T07:25:53.345Z,44.70
2018-03-26T07:26:53.267Z,44.00
2018-03-26T07:27:53.188Z,42.00
2018-03-26T07:28:53.165Z,42.90
2018-03-26T07:29:53.030Z,40.80
2018-03-26T07:30:52.953Z,44.20
2018-03-26T07:31:52.873Z,42.60
2018-03-26T07:32:52.793Z,43.00
2018-03-26T07:33:52.718Z,41.90
2018-03-26T07:34:52.637Z,40.30
2018-03-26T07:35:52.560Z,41.00
2018-03-26T07:36:52.479Z,43.70
2018-03-26T07:37:52.401Z,42.00
2018-03-26T07:38:52.326Z,41.50
2018-03-26T07:39:52.243Z,42.80
2018-03-26T07:40:52.165Z,43.50
2018-03-26T07:41:52.087Z,42.10
2018-03-26T07:42:52.008Z,41.50
2018-03-26T07:43:51.932Z,44.60
2018-03-26T07:44:51.852Z,42.30
2018-03-26T07:45:51.774Z,44.20
2018-03-26T07:46:51.696Z,41.80
2018-03-26T07:47:51.617Z,46.20
2018-03-26T07:48:51.540Z,43.30
2018-03-26T07:49:51.461Z,40.90
2018-03-26T07:50:51.384Z,44.00
2018-03-26T07:51:51.307Z,40.70
2018-03-26T07:52:51.227Z,42.50
2018-03-26T07:53:51.150Z,43.70
2018-03-26T07:54:51.071Z,41.60
2018-03-26T07:55:50.994Z,42.70
2018-03-26T07:56:50.916Z,40.50
2018-03-26T07:57:50.838Z,41.90
2018-03-26T07:58:50.762Z,39.10
2018-03-26T07:59:50.682Z,40.50
2018-03-26T08:00:50.604Z,39.70
2018-03-26T08:01:50.527Z,40.20
2018-03-26T08:02:50.449Z,41.00
2018-03-26T08:03:50.370Z,42.30
2018-03-26T08:04:50.294Z,39.90
2018-03-26T08:05:50.215Z,39.90
2018-03-26T08:06:50.139Z,41.30
2018-03-26T08:07:50.061Z,46.40
2018-03-26T08:08:49.982Z,40.10
2018-03-26T08:09:49.905Z,38.80
2018-03-26T08:10:49.828Z,38.30
2018-03-26T08:11:49.749Z,42.10
2018-03-26T08:12:49.672Z,40.80
2018-03-26T08:13:49.593Z,38.80
2018-03-26T08:14:49.516Z,37.90
2018-03-26T08:15:49.438Z,40.00
2018-03-26T08:16:49.363Z,42.30
2018-03-26T08:17:49.281Z,41.20
2018-03-26T08:18:49.206Z,41.50
2018-03-26T08:19:49.125Z,40.60
2018-03-26T08:20:49.048Z,46.70
2018-03-26T08:21:48.972Z,42.60
2018-03-26T08:22:48.892Z,41.80
2018-03-26T08:23:48.827Z,41.10
2018-03-26T08:24:48.738Z,43.80
2018-03-26T08:25:48.657Z,39.60
2018-03-26T08:26:48.581Z,41.20
2018-03-26T08:27:48.502Z,43.30
2018-03-26T08:28:48.423Z,42.70
2018-03-26T08:29:48.348Z,44.00
2018-03-26T08:30:48.270Z,42.00
2018-03-26T08:31:48.189Z,41.30
2018-03-26T08:32:48.112Z,40.80
2018-03-26T08:33:48.040Z,39.60
2018-03-26T08:34:47.958Z,43.50
2018-03-26T08:35:47.878Z,42.50
2018-03-26T08:36:47.801Z,45.10
2018-03-26T08:37:47.724Z,48.00
2018-03-26T08:38:47.648Z,43.70
2018-03-26T08:39:47.567Z,41.60
2018-03-26T08:40:47.491Z,42.20
2018-03-26T08:41:47.412Z,42.30
2018-03-26T08:42:47.335Z,41.10
2018-03-26T08:43:47.257Z,46.40
2018-03-26T08:44:47.180Z,44.80
2018-03-26T08:45:47.101Z,40.30
2018-03-26T08:46:47.023Z,43.20
2018-03-26T08:47:46.946Z,42.00
2018-03-26T08:48:46.882Z,39.80
2018-03-26T08:49:46.854Z,41.10
2018-03-26T08:50:46.713Z,40.30
2018-03-26T08:51:46.635Z,40.60
2018-03-26T08:52:46.562Z,42.50
2018-03-26T08:53:46.481Z,40.20
2018-03-26T08:54:46.403Z,45.50
2018-03-26T08:55:46.326Z,43.90
2018-03-26T08:56:46.248Z,46.70
2018-03-26T08:57:46.170Z,41.20
2018-03-26T08:58:46.095Z,41.80
2018-03-26T08:59:46.014Z,122.40
2018-03-26T09:00:45.938Z,185.80
2018-03-26T09:01:45.859Z,48.70
2018-03-26T09:02:45.783Z,39.50
2018-03-26T09:03:45.704Z,46.40
2018-03-26T09:04:45.627Z,44.00
2018-03-26T09:05:45.554Z,40.30
2018-03-26T09:06:45.472Z,44.00
2018-03-26T09:07:45.394Z,42.00
2018-03-26T09:08:45.316Z,39.30
2018-03-26T09:09:45.240Z,43.60
2018-03-26T09:10:45.161Z,40.00
2018-03-26T09:11:45.087Z,41.00
2018-03-26T09:12:45.006Z,39.80
2018-03-26T09:13:44.929Z,45.10
2018-03-26T09:14:44.851Z,41.10
2018-03-26T09:15:44.773Z,39.10
2018-03-26T09:16:44.695Z,41.70
2018-03-26T09:17:44.617Z,40.20
2018-03-26T09:18:44.540Z,45.10
2018-03-26T09:19:44.463Z,40.90
2018-03-26T09:20:44.387Z,41.50
2018-03-26T09:21:44.307Z,40.00
2018-03-26T09:22:44.229Z,42.60
2018-03-26T09:23:44.152Z,46.90
2018-03-26T09:24:44.074Z,40.50
2018-03-26T09:25:43.996Z,46.30
2018-03-26T09:26:43.919Z,39.80
2018-03-26T09:27:43.841Z,39.00
2018-03-26T09:28:43.763Z,42.40
2018-03-26T09:29:43.687Z,38.20
2018-03-26T09:30:43.607Z,42.20
2018-03-26T09:31:43.531Z,39.90
2018-03-26T09:32:43.453Z,41.90
2018-03-26T09:33:43.376Z,41.00
2018-03-26T09:34:43.299Z,42.60
2018-03-26T09:35:43.220Z,47.50
2018-03-26T09:36:43.143Z,42.20
2018-03-26T09:37:43.066Z,39.70
2018-03-26T09:38:43.042Z,44.00
2018-03-26T09:39:42.909Z,41.00
2018-03-26T09:40:42.833Z,38.10
2018-03-26T09:41:42.756Z,40.20
2018-03-26T09:42:42.678Z,40.40
2018-03-26T09:43:42.598Z,40.10
2018-03-26T09:44:42.522Z,41.00
2018-03-26T09:45:42.448Z,62.30
2018-03-26T09:46:42.369Z,39.10
2018-03-26T09:47:42.295Z,39.90
2018-03-26T09:48:42.214Z,40.50
2018-03-26T09:49:42.136Z,40.40
2018-03-26T09:50:42.059Z,36.00
2018-03-26T09:51:41.981Z,40.10
2018-03-26T09:52:41.911Z,50.10
2018-03-26T09:53:41.826Z,40.60
2018-03-26T09:54:41.750Z,39.80
2018-03-26T09:55:41.672Z,45.70
2018-03-26T09:56:41.595Z,39.20
2018-03-26T09:57:41.518Z,41.40
2018-03-26T09:58:41.446Z,42.70
2018-03-26T09:59:41.362Z,39.40
2018-03-26T10:00:41.287Z,39.70
2018-03-26T10:01:41.211Z,39.30
2018-03-26T10:02:41.133Z,40.60
2018-03-26T10:03:41.053Z,39.80
2018-03-26T10:04:40.976Z,41.70
2018-03-26T10:05:40.898Z,39.10
2018-03-26T10:06:40.820Z,39.80
2018-03-26T10:07:40.743Z,38.70
2018-03-26T10:08:40.666Z,35.10
2018-03-26T10:09:40.589Z,36.00
2018-03-26T10:10:40.511Z,37.10
2018-03-26T10:11:40.432Z,39.10
2018-03-26T10:12:40.355Z,37.50
2018-03-26T10:13:40.278Z,39.30
2018-03-26T10:14:40.201Z,36.20
2018-03-26T10:15:40.125Z,39.10
2018-03-26T10:16:40.046Z,37.80
2018-03-26T10:17:39.967Z,36.30
2018-03-26T10:18:39.890Z,42.50
2018-03-26T10:19:39.811Z,39.10
2018-03-26T10:20:39.734Z,36.90
2018-03-26T10:21:39.656Z,38.50
2018-03-26T10:22:39.579Z,38.90
2018-03-26T10:23:39.501Z,39.80
2018-03-26T10:24:39.423Z,36.50
2018-03-26T10:25:39.349Z,37.20
2018-03-26T10:26:39.268Z,38.60
2018-03-26T10:27:39.190Z,40.40
2018-03-26T10:28:39.112Z,41.60
2018-03-26T10:29:39.034Z,37.90
2018-03-26T10:30:38.957Z,41.40
2018-03-26T10:31:38.878Z,41.30
2018-03-26T10:32:38.800Z,42.90
2018-03-26T10:33:38.723Z,43.60
2018-03-26T10:34:38.647Z,37.60
2018-03-26T10:35:38.567Z,34.90
2018-03-26T10:36:38.489Z,37.60
2018-03-26T10:37:38.412Z,41.30
2018-03-26T10:38:38.335Z,36.20
2018-03-26T10:39:38.256Z,39.10
2018-03-26T10:40:38.185Z,39.80
2018-03-26T10:41:38.101Z,37.00
2018-03-26T10:42:38.023Z,38.40
2018-03-26T10:43:37.946Z,41.60
2018-03-26T10:44:37.872Z,39.50
2018-03-26T10:45:37.791Z,38.50
2018-03-26T10:46:37.714Z,38.30
2018-03-26T10:47:37.634Z,54.20
2018-03-26T10:48:37.557Z,50.50
2018-03-26T10:49:37.480Z,43.00
2018-03-26T10:50:37.404Z,37.70
2018-03-26T10:51:37.325Z,37.40
2018-03-26T10:52:37.247Z,37.50
2018-03-26T10:53:37.170Z,40.10
2018-03-26T10:54:37.093Z,39.30
2018-03-26T10:55:37.015Z,35.10
2018-03-26T10:56:36.937Z,37.10
2018-03-26T10:57:36.860Z,38.20
2018-03-26T10:58:36.782Z,38.80
2018-03-26T10:59:36.705Z,38.80
2018-03-26T11:00:36.627Z,36.10
2018-03-26T11:01:36.550Z,37.60
2018-03-26T11:02:36.473Z,39.00
2018-03-26T11:03:36.395Z,38.90
2018-03-26T11:04:36.318Z,35.90
2018-03-26T11:05:36.250Z,38.80
2018-03-26T11:06:36.163Z,37.80
2018-03-26T11:07:36.085Z,38.20
2018-03-26T11:08:36.009Z,38.10
2018-03-26T11:09:35.934Z,37.50
2018-03-26T11:10:35.854Z,35.80
2018-03-26T11:11:35.776Z,33.60
2018-03-26T11:12:35.699Z,35.00
2018-03-26T11:13:35.622Z,38.30
2018-03-26T11:14:35.544Z,38.70
2018-03-26T11:15:35.467Z,34.70
2018-03-26T11:16:35.389Z,35.50
2018-03-26T11:17:35.313Z,33.80
2018-03-26T11:18:35.236Z,36.40
2018-03-26T11:19:35.158Z,37.30
2018-03-26T11:20:35.092Z,37.00
2018-03-26T11:21:35.004Z,38.40
2018-03-26T11:22:34.953Z,34.50
2018-03-26T11:23:34.851Z,38.00
2018-03-26T11:24:34.773Z,34.90
2018-03-26T11:25:34.696Z,36.10
2018-03-26T11:26:34.618Z,36.30
2018-03-26T11:27:34.541Z,33.50
2018-03-26T11:28:34.466Z,35.50
2018-03-26T11:29:34.390Z,36.30
2018-03-26T11:30:34.310Z,37.00
2018-03-26T11:31:34.233Z,34.40
2018-03-26T11:32:34.158Z,38.50
2018-03-26T11:33:34.079Z,41.00
2018-03-26T11:34:34.001Z,38.80
2018-03-26T11:35:33.925Z,34.60
2018-03-26T11:36:33.848Z,37.30
2018-03-26T11:37:33.771Z,38.00
2018-03-26T11:38:33.695Z,37.00
2018-03-26T11:39:33.617Z,36.20
2018-03-26T11:40:33.540Z,35.90
2018-03-26T11:41:33.463Z,34.00
2018-03-26T11:42:33.387Z,38.50
2018-03-26T11:43:33.309Z,34.90
2018-03-26T11:44:33.233Z,37.20
2018-03-26T11:45:33.156Z,31.90
2018-03-26T11:46:33.080Z,35.50
2018-03-26T11:47:33.002Z,37.30
2018-03-26T11:48:32.926Z,36.00
2018-03-26T11:49:32.851Z,40.40
2018-03-26T11:50:32.771Z,36.20
2018-03-26T11:51:32.703Z,33.50
2018-03-26T11:52:32.619Z,37.20
2018-03-26T11:53:32.542Z,38.60
2018-03-26T11:54:32.466Z,35.70
2018-03-26T11:55:32.388Z,34.90
2018-03-26T11:56:32.313Z,39.80
2018-03-26T11:57:32.236Z,36.00
2018-03-26T11:58:32.160Z,34.20
2018-03-26T11:59:32.083Z,34.80
2018-03-26T12:00:32.005Z,35.40
2018-03-26T12:01:31.929Z,34.30
2018-03-26T12:02:31.854Z,34.40
2018-03-26T12:03:31.776Z,35.30
2018-03-26T12:04:31.700Z,37.20
2018-03-26T12:05:31.628Z,34.40
2018-03-26T12:06:31.547Z,36.40
2018-03-26T12:07:31.470Z,35.40
2018-03-26T12:08:31.400Z,38.10
2018-03-26T12:09:31.318Z,37.00
2018-03-26T12:10:31.243Z,34.20
2018-03-26T12:11:31.164Z,36.60
2018-03-26T12:12:31.088Z,40.70
2018-03-26T12:13:31.013Z,36.20
2018-03-26T12:14:30.935Z,36.30
2018-03-26T12:15:30.858Z,35.70
2018-03-26T12:16:30.783Z,36.30
2018-03-26T12:17:30.707Z,35.00
2018-03-26T12:18:30.629Z,33.40
2018-03-26T12:19:30.556Z,35.80
2018-03-26T12:20:30.476Z,36.60
2018-03-26T12:21:30.400Z,36.60
2018-03-26T12:22:30.323Z,39.20
2018-03-26T12:23:30.245Z,36.80
2018-03-26T12:24:30.174Z,36.60
2018-03-26T12:25:30.094Z,38.90
2018-03-26T12:26:30.017Z,34.70
2018-03-26T12:27:29.940Z,40.80
2018-03-26T12:28:29.864Z,39.20
2018-03-26T12:29:29.787Z,35.40
2018-03-26T12:30:29.711Z,35.30
2018-03-26T12:31:29.635Z,37.30
2018-03-26T12:32:29.610Z,34.90
2018-03-26T12:33:29.482Z,36.70
2018-03-26T12:34:29.405Z,35.60
2018-03-26T12:35:29.328Z,37.50
2018-03-26T12:36:29.251Z,37.70
2018-03-26T12:37:29.175Z,39.70
2018-03-26T12:38:29.099Z,39.30
2018-03-26T12:39:29.022Z,39.60
2018-03-26T12:40:28.946Z,39.30
2018-03-26T12:41:28.878Z,34.50
2018-03-26T12:42:28.794Z,38.40
2018-03-26T12:43:28.716Z,34.30
2018-03-26T12:44:28.641Z,38.50
2018-03-26T12:45:28.602Z,35.30
2018-03-26T12:46:28.492Z,34.10
2018-03-26T12:47:28.412Z,35.50
2018-03-26T12:48:28.337Z,43.20
2018-03-26T12:49:28.261Z,34.40
2018-03-26T12:50:28.185Z,37.60
2018-03-26T12:51:28.108Z,35.80